Weather at Washington Dulles International Airport

Public forecast

Using degrees Fahrenheit for public forecast. Weather courtesy of forecast.io.

Current aviation weather report (METAR) for Washington Dulles International Airport

2022/11/30 09:52 (retrieved 1 hour ago)

KIAD 300952Z 17008KT 10SM SCT017 OVC046 09/06 A3002 RMK AO2 RAE0856 SLP165 P0000 T00890056

Aviation forecast (TAF) for Washington Dulles International Airport

2022/11/30 09:00 Ammendment (retrieved 2 hours ago)

TAF AMD KIAD 300857Z 3009/0112 15008G16KT 6SM -RA BKN015 OVC050 WS020/19045KT FM301200 15010G20KT 3SM RA BKN008 OVC025 WS020/19050KT FM301500 19017G28KT 6SM -SHRA BKN015 OVC050 FM302000 29018G32KT P6SM SCT035 FM010300 29012G24KT P6SM SKC FM011000 29008G16KT P6SM SKC